Погода Монтекильона неделю

Мехико, Мексика

01 - 07 марта
  • 01марта
    Сегодня
    +11°
    +28°
    Практически безоблачно
    ВремяПогодаТемператураВлажностьДавлениеВетер, м/сВероятность осадков
    00:00Практически безоблачно+19°C43 %592 мм2.9 м/с2 %
    03:00Небольшая облачность+15°C43 %589 мм2.1 м/с3 %
    06:00Облачно с прояснениями+13°C50 %589 мм2.1 м/с4 %
    09:00Облачно с прояснениями+16°C38 %592 мм1.8 м/с2 %
    12:00Небольшая облачность+23°C20 %593 мм2.2 м/с2 %
    15:00Практически безоблачно+27°C18 %592 мм2.4 м/с3 %
    18:00Практически безоблачно+26°C25 %592 мм5.8 м/с3 %
    21:00Практически безоблачно+20°C34 %592 мм3.7 м/с3 %
  • 02марта
    Суббота
    +10°
    +28°
    Ясно и безоблачно
    ВремяПогодаТемператураВлажностьДавлениеВетер, м/сВероятность осадков
    00:00Ясно и безоблачно+18°C42 %591 мм2.9 м/с3 %
    03:00Ясно и безоблачно+15°C47 %589 мм2.1 м/с4 %
    06:00Ясно и безоблачно+13°C44 %589 мм1.9 м/с3 %
    09:00Небольшая облачность+16°C34 %591 мм1.4 м/с2 %
    12:00Ясно и безоблачно+22°C20 %593 мм1.7 м/с2 %
    15:00Ясно и безоблачно+27°C15 %592 мм2.5 м/с2 %
    18:00Ясно и безоблачно+26°C17 %592 мм5.8 м/с2 %
    21:00Небольшая облачность+20°C26 %591 мм3.5 м/с2 %
  • 03марта
    Воскресенье
    +12°
    +28°
    Ясно и безоблачно
    ВремяПогодаТемператураВлажностьДавлениеВетер, м/сВероятность осадков
    00:00Ясно и безоблачно+18°C32 %591 мм2.7 м/с2 %
    03:00Небольшая облачность+14°C33 %589 мм1.7 м/с2 %
    06:00Ясно и безоблачно+13°C35 %588 мм1.6 м/с2 %
    09:00Ясно и безоблачно+16°C21 %591 мм1.3 м/с2 %
    12:00Ясно и безоблачно+23°C14 %592 мм2.3 м/с2 %
    15:00Ясно и безоблачно+27°C13 %591 мм2.4 м/с2 %
    18:00Практически безоблачно+26°C19 %591 мм5.4 м/с2 %
    21:00Небольшая облачность+20°C29 %590 мм3.9 м/с2 %
  • 04марта
    Понедельник
    +11°
    +28°
    Облачно с прояснениями
    ВремяПогодаТемператураВлажностьДавлениеВетер, м/сВероятность осадков
    00:00Облачно с прояснениями+18°C34 %590 мм2.9 м/с2 %
    03:00Небольшая облачность+15°C36 %588 мм2.0 м/с2 %
    06:00Небольшая облачность+13°C38 %588 мм2.1 м/с2 %
    09:00Ясно и безоблачно+16°C27 %590 мм1.6 м/с2 %
    12:00Практически безоблачно+23°C17 %591 мм2.1 м/с2 %
    15:00Облачно с прояснениями+27°C14 %590 мм3.5 м/с5 %
    18:00Небольшая облачность+26°C16 %590 мм5.3 м/с3 %
    21:00Ясно и безоблачно+20°C23 %590 мм3.8 м/с2 %
  • 05марта
    Вторник
    +11°
    +28°
    Ясно и безоблачно
    ВремяПогодаТемператураВлажностьДавлениеВетер, м/сВероятность осадков
    00:00Ясно и безоблачно+18°C28 %590 мм2.7 м/с2 %
    03:00Ясно и безоблачно+14°C33 %587 мм2.0 м/с2 %
    06:00Ясно и безоблачно+12°C39 %587 мм1.7 м/с2 %
    09:00Ясно и безоблачно+16°C25 %590 мм1.3 м/с2 %
    12:00Ясно и безоблачно+23°C11 %591 мм2.6 м/с2 %
    15:00Ясно и безоблачно+28°C11 %590 мм2.7 м/с2 %
    18:00Практически безоблачно+27°C15 %590 мм5.3 м/с2 %
    21:00Ясно и безоблачно+21°C22 %589 мм3.6 м/с2 %
Мы используем cookies
Соглашаюсь